Time;durP1;ratioP1;P1;durP2;ratioP2;P2;SDS_P1;SDS_P2;PMS_P1;PMS_P2;Temp;Humidity;BMP_temperature;BMP_pressure;BME280_temperature;BME280_humidity;BME280_pressure;Samples;Min_cycle;Max_cycle;Signal;HPM_P1;HPM_P2
2022/01/14 00:01:27;;;;;;;25.75;13.88;;;-2.30;99.90;;;;;;5208440;28;20036;-77
2022/01/14 00:03:57;;;;;;;24.02;13.70;;;-2.40;99.90;;;;;;5207302;28;20384;-77
2022/01/14 00:06:28;;;;;;;25.77;12.95;;;-2.30;99.90;;;;;;5208557;28;20036;-76
2022/01/14 00:09:10;;;;;;;24.48;13.05;;;-2.40;99.90;;;;;;5208375;28;20519;-77
2022/01/14 00:11:55;;;;;;;23.80;13.38;;;-2.50;99.90;;;;;;5208368;28;20021;-77
2022/01/14 00:17:12;;;;;;;22.77;13.55;;;-2.50;99.90;;;;;;5208118;28;20045;-76
2022/01/14 00:19:44;;;;;;;26.90;13.43;;;-2.50;99.90;;;;;;5208299;28;20018;-77
2022/01/14 00:22:16;;;;;;;20.38;12.63;;;-2.60;99.90;;;;;;5208331;28;20033;-77
2022/01/14 00:33:19;;;;;;;23.58;14.07;;;-3.00;99.90;;;;;;5208337;28;20045;-77
2022/01/14 00:35:50;;;;;;;24.35;12.60;;;-3.00;99.90;;;;;;5207893;28;20041;-77
2022/01/14 00:38:21;;;;;;;22.20;11.77;;;-3.00;99.90;;;;;;5207871;28;20017;-77
2022/01/14 00:40:52;;;;;;;20.38;11.82;;;-3.10;99.90;;;;;;5207686;28;20030;-77
2022/01/14 00:43:22;;;;;;;22.63;12.75;;;-2.90;99.90;;;;;;5207669;28;20029;-76
2022/01/14 00:45:55;;;;;;;20.83;12.48;;;-2.80;99.90;;;;;;5207374;28;20088;-76
2022/01/14 00:48:26;;;;;;;27.13;13.43;;;-2.90;99.90;;;;;;5207734;28;20021;-77
2022/01/14 00:50:57;;;;;;;24.45;13.18;;;-3.00;99.90;;;;;;5207771;28;20029;-77
2022/01/14 00:53:28;;;;;;;22.40;12.43;;;-2.90;99.90;;;;;;5207636;28;20449;-77
2022/01/14 00:56:07;;;;;;;20.13;10.40;;;-2.70;99.90;;;;;;5207604;28;20033;-77
2022/01/14 01:01:27;;;;;;;20.75;10.88;;;-2.90;99.90;;;;;;5207931;28;20035;-76
2022/01/14 01:03:58;;;;;;;21.52;12.00;;;-3.10;99.90;;;;;;5207514;28;20117;-76
2022/01/14 01:06:29;;;;;;;21.23;12.52;;;-3.20;99.90;;;;;;5206792;28;20104;-77
2022/01/14 01:09:00;;;;;;;20.65;11.98;;;-3.00;99.90;;;;;;5207275;28;20022;-76
2022/01/14 01:11:35;;;;;;;21.30;12.55;;;-2.90;99.90;;;;;;5207242;28;20048;-77
2022/01/14 01:14:34;;;;;;;21.85;11.60;;;-2.90;99.90;;;;;;5207369;28;20022;-76
2022/01/14 01:17:05;;;;;;;18.63;11.60;;;-2.90;99.90;;;;;;5205778;28;20049;-76
2022/01/14 01:19:36;;;;;;;21.00;12.07;;;-3.20;99.90;;;;;;5207162;28;20026;-77
2022/01/14 01:22:07;;;;;;;22.80;11.98;;;-3.10;99.90;;;;;;5207114;28;20026;-76
2022/01/14 01:24:38;;;;;;;21.38;11.93;;;-3.10;99.90;;;;;;5207221;28;20025;-76
2022/01/14 01:27:09;;;;;;;20.67;12.25;;;-3.30;99.90;;;;;;5206991;28;20025;-77
2022/01/14 01:32:11;;;;;;;21.77;12.85;;;-3.40;99.90;;;;;;5207173;28;20024;-77
2022/01/14 01:34:42;;;;;;;23.30;12.30;;;-3.40;99.90;;;;;;5207028;28;20473;-75
2022/01/14 01:37:13;;;;;;;23.23;13.10;;;-3.40;99.90;;;;;;5206832;28;20040;-76
2022/01/14 01:39:44;;;;;;;22.90;13.27;;;-3.10;99.90;;;;;;5206781;28;20034;-76
2022/01/14 01:42:19;;;;;;;23.60;12.30;;;-3.20;99.90;;;;;;5206940;28;20061;-76
2022/01/14 01:44:50;;;;;;;21.30;12.27;;;-3.60;99.90;;;;;;5206514;28;20052;-77
2022/01/14 01:47:22;;;;;;;27.65;12.80;;;-3.50;99.90;;;;;;5206780;28;20508;-76
2022/01/14 01:49:53;;;;;;;27.52;15.63;;;-3.40;99.90;;;;;;5206823;28;20029;-77
2022/01/14 01:52:24;;;;;;;42.28;23.20;;;-3.30;99.90;;;;;;5206736;28;20032;-77
2022/01/14 01:54:55;;;;;;;33.47;18.67;;;-3.30;99.90;;;;;;5206553;28;20136;-76
2022/01/14 01:57:26;;;;;;;24.83;14.30;;;-3.50;99.90;;;;;;5206611;28;20121;-76
2022/01/14 01:59:57;;;;;;;26.95;15.65;;;-3.70;99.90;;;;;;5206760;28;20385;-76
2022/01/14 02:02:28;;;;;;;30.20;16.77;;;-3.90;99.90;;;;;;5206673;28;20029;-76
2022/01/14 02:04:59;;;;;;;25.02;13.65;;;-3.80;99.90;;;;;;5206744;28;20026;-77
2022/01/14 02:07:34;;;;;;;27.65;15.95;;;-4.10;99.90;;;;;;5206580;28;20025;-76
2022/01/14 02:10:05;;;;;;;30.35;16.83;;;-3.70;99.90;;;;;;5206564;28;20064;-77
2022/01/14 02:12:45;;;;;;;24.48;14.07;;;-3.70;99.90;;;;;;5206604;28;20025;-77
2022/01/14 02:15:30;;;;;;;35.42;21.23;;;-3.80;99.90;;;;;;5206358;28;20037;-74
2022/01/14 02:24:31;;;;;;;30.15;15.80;;;-3.80;99.90;;;;;;5210807;28;20047;-74
2022/01/14 02:27:00;;;;;;;26.70;15.82;;;-3.80;99.90;;;;;;5210146;28;20092;-76
2022/01/14 02:29:31;;;;;;;27.65;15.13;;;-4.00;99.90;;;;;;5210369;28;20064;-77
2022/01/14 02:32:03;;;;;;;28.50;14.77;;;-4.00;99.90;;;;;;5210265;28;20056;-78
2022/01/14 02:34:35;;;;;;;24.77;13.98;;;-4.20;99.90;;;;;;5210285;28;20033;-78
2022/01/14 02:37:06;;;;;;;24.42;13.45;;;-4.40;99.90;;;;;;5210106;28;20500;-77
2022/01/14 02:39:38;;;;;;;23.95;13.27;;;-4.50;99.90;;;;;;5210068;28;20026;-78
2022/01/14 02:42:09;;;;;;;25.73;13.43;;;-4.60;99.90;;;;;;5210015;28;20044;-77
2022/01/14 02:44:40;;;;;;;24.33;12.82;;;-4.70;99.90;;;;;;5210080;28;20124;-78
2022/01/14 02:47:11;;;;;;;25.40;13.25;;;-4.50;99.90;;;;;;5209756;28;20049;-77
2022/01/14 02:49:42;;;;;;;22.33;12.93;;;-4.60;99.90;;;;;;5210058;28;20557;-77
2022/01/14 02:52:13;;;;;;;23.35;13.73;;;-4.50;99.90;;;;;;5209963;28;20373;-78
2022/01/14 02:55:13;;;;;;;26.55;14.45;;;-4.30;99.90;;;;;;5209701;28;20064;-78
2022/01/14 02:57:46;;;;;;;28.55;15.25;;;-4.50;99.90;;;;;;5209448;28;20037;-78
2022/01/14 03:00:23;;;;;;;24.40;13.60;;;-4.50;99.90;;;;;;5209771;28;20017;-76
2022/01/14 03:02:54;;;;;;;25.55;14.32;;;-4.50;99.90;;;;;;5209795;28;20025;-76
2022/01/14 03:05:28;;;;;;;25.70;14.30;;;-4.30;99.90;;;;;;5209584;28;20026;-76
2022/01/14 03:07:59;;;;;;;27.42;15.85;;;-4.10;99.90;;;;;;5209485;28;20026;-78
2022/01/14 03:10:30;;;;;;;28.55;14.52;;;-4.30;99.90;;;;;;5209661;28;20029;-77
2022/01/14 03:13:01;;;;;;;27.85;15.30;;;-4.30;99.90;;;;;;5209297;28;20128;-78
2022/01/14 03:15:32;;;;;;;26.60;14.88;;;-4.20;99.90;;;;;;5209204;28;20334;-76
2022/01/14 03:18:03;;;;;;;26.20;14.93;;;-4.30;99.90;;;;;;5209170;28;20483;-77
2022/01/14 03:20:52;;;;;;;25.70;14.15;;;-4.40;99.90;;;;;;5208064;28;20030;-76
2022/01/14 03:23:23;;;;;;;33.30;15.25;;;-4.30;99.90;;;;;;5209407;28;20045;-75
2022/01/14 03:25:55;;;;;;;27.95;14.38;;;-4.60;99.90;;;;;;5209144;28;20100;-77
2022/01/14 03:28:25;;;;;;;25.10;14.52;;;-4.70;99.90;;;;;;5208820;28;20441;-76
2022/01/14 03:30:56;;;;;;;24.23;14.05;;;-4.60;99.90;;;;;;5191316;28;20032;-78
2022/01/14 03:33:27;;;;;;;24.05;14.00;;;-4.50;99.90;;;;;;5209240;28;20507;-78
2022/01/14 03:35:58;;;;;;;23.67;13.68;;;-4.20;99.90;;;;;;5208993;28;20409;-78
2022/01/14 03:38:29;;;;;;;26.05;13.05;;;-4.70;99.90;;;;;;5209034;28;20484;-77
2022/01/14 03:41:01;;;;;;;26.00;13.10;;;-4.80;99.90;;;;;;5209008;28;20108;-77
2022/01/14 03:43:35;;;;;;;28.55;14.27;;;-4.90;99.90;;;;;;5209126;28;20025;-77
2022/01/14 03:46:06;;;;;;;24.67;13.40;;;-4.90;99.90;;;;;;5208590;28;20068;-77
2022/01/14 03:48:37;;;;;;;24.75;14.13;;;-4.80;99.90;;;;;;5208884;28;20014;-77
2022/01/14 03:51:08;;;;;;;26.50;13.65;;;-4.90;99.90;;;;;;5208865;28;20033;-77
2022/01/14 03:53:39;;;;;;;27.00;14.45;;;-5.00;99.90;;;;;;5208942;28;20470;-76
2022/01/14 03:56:10;;;;;;;27.08;13.77;;;-4.90;99.90;;;;;;5208566;28;20066;-76
2022/01/14 03:58:42;;;;;;;24.92;13.77;;;-5.10;99.90;;;;;;5208388;28;20079;-77
2022/01/14 04:01:13;;;;;;;25.65;13.65;;;-5.10;99.90;;;;;;5208534;28;20120;-76
2022/01/14 04:03:44;;;;;;;26.17;13.98;;;-4.80;99.90;;;;;;5208548;28;20105;-76
2022/01/14 04:06:16;;;;;;;25.85;13.77;;;-4.60;99.90;;;;;;5208579;28;20026;-76
2022/01/14 04:08:47;;;;;;;23.85;13.38;;;-4.60;99.90;;;;;;5208403;28;20105;-77
2022/01/14 04:11:18;;;;;;;24.63;13.13;;;-4.50;99.90;;;;;;5208375;28;20105;-77
2022/01/14 04:13:55;;;;;;;26.17;13.98;;;-4.50;99.90;;;;;;5208344;28;20053;-76
2022/01/14 04:16:27;;;;;;;25.80;14.10;;;-4.40;99.90;;;;;;5208225;28;20496;-77
2022/01/14 04:18:58;;;;;;;25.85;13.65;;;-4.90;99.90;;;;;;5208087;28;20099;-76
2022/01/14 04:21:29;;;;;;;26.20;13.75;;;-5.30;99.90;;;;;;5208082;28;20105;-78
2022/01/14 04:24:00;;;;;;;32.13;15.68;;;-5.10;99.90;;;;;;5208167;28;20029;-77
2022/01/14 04:26:31;;;;;;;28.73;15.75;;;-4.90;99.90;;;;;;5208006;28;20028;-78
2022/01/14 04:29:02;;;;;;;28.90;14.65;;;-4.60;99.90;;;;;;5208073;28;20463;-78
2022/01/14 04:31:33;;;;;;;28.65;14.88;;;-4.70;99.90;;;;;;5208077;28;20460;-77
2022/01/14 04:34:04;;;;;;;27.58;14.73;;;-4.90;99.90;;;;;;5207893;28;20021;-77
2022/01/14 04:36:34;;;;;;;30.77;15.48;;;-4.70;99.90;;;;;;5208085;28;20044;-77
2022/01/14 04:39:05;;;;;;;30.10;14.60;;;-5.20;99.90;;;;;;5207888;28;20368;-77
2022/01/14 04:41:36;;;;;;;25.65;13.38;;;-4.90;99.90;;;;;;5207001;28;20025;-77
2022/01/14 04:44:07;;;;;;;25.48;13.85;;;-5.30;99.90;;;;;;5207842;28;20052;-77
2022/01/14 04:49:11;;;;;;;27.02;14.90;;;-5.50;99.90;;;;;;5207868;28;20025;-77
2022/01/14 04:51:42;;;;;;;28.30;14.77;;;-5.40;99.90;;;;;;5207592;28;20044;-77
2022/01/14 04:54:14;;;;;;;25.73;14.70;;;-5.30;99.90;;;;;;5207687;28;20022;-77
2022/01/14 04:56:44;;;;;;;28.15;14.95;;;-5.20;99.90;;;;;;5207410;28;20033;-78
2022/01/14 04:59:16;;;;;;;29.70;15.48;;;-5.30;99.90;;;;;;5207455;28;20028;-76
2022/01/14 05:01:47;;;;;;;28.83;15.15;;;-5.00;99.90;;;;;;5205049;28;20029;-77
2022/01/14 05:04:17;;;;;;;27.73;15.80;;;-5.20;99.90;;;;;;5207252;28;20041;-77
2022/01/14 05:06:55;;;;;;;28.88;15.30;;;-5.10;99.90;;;;;;5207309;28;20095;-77
2022/01/14 05:09:33;;;;;;;27.05;15.70;;;-5.40;99.90;;;;;;5207251;28;20488;-76
2022/01/14 05:12:08;;;;;;;28.10;15.95;;;-5.10;99.90;;;;;;5207336;28;20101;-76
2022/01/14 05:14:39;;;;;;;30.13;15.93;;;-4.90;99.90;;;;;;5207274;28;20044;-77
2022/01/14 05:17:10;;;;;;;29.40;15.52;;;-5.30;99.90;;;;;;5207077;28;20038;-76
2022/01/14 05:19:41;;;;;;;33.60;17.17;;;-5.00;99.90;;;;;;5207181;28;20057;-76
2022/01/14 05:22:12;;;;;;;32.67;18.48;;;-5.20;99.90;;;;;;5207183;28;20036;-77
2022/01/14 05:24:45;;;;;;;32.60;17.10;;;-5.10;99.90;;;;;;5206937;28;20036;-77
2022/01/14 05:27:17;;;;;;;30.75;17.17;;;-5.00;99.90;;;;;;5189231;28;20022;-77
2022/01/14 05:29:49;;;;;;;33.15;17.48;;;-5.40;99.90;;;;;;5206986;28;20026;-77
2022/01/14 05:32:21;;;;;;;35.65;17.02;;;-5.30;99.90;;;;;;5206892;28;20083;-78
2022/01/14 05:34:52;;;;;;;34.55;17.23;;;-5.10;99.90;;;;;;5189313;28;20033;-76
2022/01/14 05:37:22;;;;;;;32.22;16.88;;;-5.10;99.90;;;;;;5189087;28;20457;-76
2022/01/14 05:39:53;;;;;;;34.40;18.90;;;-5.00;99.90;;;;;;5206773;28;20021;-75
2022/01/14 05:42:24;;;;;;;35.50;18.55;;;-5.20;99.90;;;;;;5206746;28;20017;-78
2022/01/14 05:44:55;;;;;;;37.05;19.63;;;-5.20;99.90;;;;;;5206591;28;20120;-77
2022/01/14 05:47:26;;;;;;;38.95;19.90;;;-5.20;99.90;;;;;;5207015;28;20038;-76
2022/01/14 05:49:57;;;;;;;38.35;19.23;;;-5.30;99.90;;;;;;5206790;28;20030;-77
2022/01/14 05:52:28;;;;;;;38.60;19.95;;;-5.20;99.90;;;;;;5208420;28;20028;-78
2022/01/14 05:54:58;;;;;;;40.83;19.10;;;-4.70;99.90;;;;;;5193251;28;20096;-76
2022/01/14 05:57:30;;;;;;;36.67;19.15;;;-4.80;99.90;;;;;;5210862;28;20072;-78
2022/01/14 06:00:04;;;;;;;36.05;19.73;;;-5.00;99.90;;;;;;5211046;28;20140;-76
2022/01/14 06:02:34;;;;;;;37.47;18.95;;;-5.30;99.90;;;;;;5210696;28;20057;-78
2022/01/14 06:05:06;;;;;;;36.30;19.50;;;-5.10;99.90;;;;;;5210743;28;20056;-76
2022/01/14 06:07:36;;;;;;;38.05;19.85;;;-5.20;99.90;;;;;;5205663;28;20056;-76
2022/01/14 06:10:08;;;;;;;42.47;21.27;;;-5.00;99.90;;;;;;5199968;28;20030;-78
2022/01/14 06:12:39;;;;;;;39.83;19.25;;;-4.90;99.90;;;;;;5197700;28;20541;-78
2022/01/14 06:15:10;;;;;;;38.05;20.20;;;-4.90;99.90;;;;;;5193414;28;20030;-78
2022/01/14 06:17:41;;;;;;;38.42;19.38;;;-4.70;99.90;;;;;;5193134;28;20462;-76
2022/01/14 06:20:12;;;;;;;34.95;18.60;;;-4.80;99.90;;;;;;5197476;28;20047;-78
2022/01/14 06:22:43;;;;;;;33.30;18.27;;;-4.70;99.90;;;;;;5209324;28;20388;-77
2022/01/14 06:25:14;;;;;;;35.88;18.75;;;-4.60;99.90;;;;;;5191395;28;20030;-75
2022/01/14 06:27:45;;;;;;;34.70;18.38;;;-4.50;99.90;;;;;;5190760;28;20529;-76
2022/01/14 06:30:16;;;;;;;38.00;17.23;;;-4.50;99.90;;;;;;5208549;28;20049;-75
2022/01/14 06:32:51;;;;;;;30.90;16.50;;;-4.40;99.90;;;;;;5208695;28;20028;-75
2022/01/14 06:35:23;;;;;;;28.58;15.48;;;-4.40;99.90;;;;;;5206723;28;20017;-77
2022/01/14 06:37:54;;;;;;;33.30;16.30;;;-4.30;99.90;;;;;;5208970;28;20567;-77
2022/01/14 06:40:25;;;;;;;34.58;17.33;;;-4.20;99.90;;;;;;5208887;28;20020;-77
2022/01/14 06:42:56;;;;;;;32.00;15.38;;;-4.10;99.90;;;;;;5208728;28;20492;-76
2022/01/14 06:45:27;;;;;;;34.22;17.13;;;-4.00;99.90;;;;;;5203616;28;20124;-75
2022/01/14 06:47:58;;;;;;;33.85;16.58;;;-3.70;99.90;;;;;;5208243;28;20042;-75
2022/01/14 06:50:29;;;;;;;31.88;16.67;;;-3.70;99.90;;;;;;5209897;28;20053;-76
2022/01/14 06:53:00;;;;;;;32.13;15.75;;;-3.40;99.90;;;;;;5205414;28;20059;-76
2022/01/14 06:55:31;;;;;;;29.95;16.63;;;-3.40;99.90;;;;;;5208917;28;20034;-76
2022/01/14 06:58:04;;;;;;;28.65;15.27;;;-3.40;99.90;;;;;;5209429;28;20032;-76
2022/01/14 07:00:35;;;;;;;28.35;15.68;;;-3.20;99.90;;;;;;5209375;28;20492;-77
2022/01/14 07:03:06;;;;;;;29.70;16.20;;;-3.00;99.90;;;;;;5208690;28;20029;-75
2022/01/14 07:05:37;;;;;;;32.15;16.33;;;-2.70;99.90;;;;;;5201036;28;20037;-77
2022/01/14 07:08:08;;;;;;;30.55;14.90;;;-3.00;99.90;;;;;;5209026;28;20373;-76
2022/01/14 07:10:40;;;;;;;30.42;14.98;;;-2.90;99.90;;;;;;5208878;28;20441;-76
2022/01/14 07:13:11;;;;;;;29.17;14.88;;;-2.80;99.90;;;;;;5208035;28;20036;-77
2022/01/14 07:15:42;;;;;;;27.00;14.00;;;-2.40;99.90;;;;;;5207999;28;20045;-77
2022/01/14 07:18:15;;;;;;;23.35;12.15;;;-2.40;99.90;;;;;;5208249;28;20354;-78
2022/01/14 07:20:46;;;;;;;29.23;14.88;;;-2.50;99.90;;;;;;5208469;28;20767;-77
2022/01/14 07:23:17;;;;;;;32.70;14.35;;;-2.20;99.90;;;;;;5207311;28;20025;-77
2022/01/14 07:25:48;;;;;;;27.83;13.45;;;-2.10;99.90;;;;;;5208101;28;20033;-77
2022/01/14 07:28:19;;;;;;;31.17;14.65;;;-1.80;99.90;;;;;;5208064;28;20030;-77
2022/01/14 07:30:50;;;;;;;26.02;12.55;;;-1.60;99.90;;;;;;5208009;28;20029;-76
2022/01/14 07:33:22;;;;;;;27.10;14.00;;;-1.70;99.90;;;;;;5208278;28;20029;-76
2022/01/14 07:35:52;;;;;;;27.92;14.35;;;-1.40;99.90;;;;;;5208002;28;20033;-76
2022/01/14 07:38:23;;;;;;;27.35;14.07;;;-1.00;99.90;;;;;;5208025;28;20103;-76
2022/01/14 07:40:54;;;;;;;27.85;13.32;;;-1.20;99.90;;;;;;5208066;28;20069;-75
2022/01/14 07:43:25;;;;;;;25.58;14.10;;;-1.00;99.90;;;;;;5208319;28;20052;-76
2022/01/14 07:45:57;;;;;;;26.30;13.50;;;-0.80;99.90;;;;;;5207547;28;20064;-76
2022/01/14 07:48:28;;;;;;;26.58;13.45;;;-0.70;99.90;;;;;;5208169;28;20017;-76
2022/01/14 07:50:58;;;;;;;26.50;13.60;;;-0.70;99.90;;;;;;5208029;28;20040;-75
2022/01/14 07:53:29;;;;;;;26.38;12.75;;;-0.70;99.90;;;;;;5208062;28;20045;-76
2022/01/14 07:56:00;;;;;;;24.40;13.88;;;-0.50;99.90;;;;;;5190295;28;20088;-75
2022/01/14 07:58:31;;;;;;;28.23;13.80;;;-0.10;99.90;;;;;;5208168;28;20021;-75
2022/01/14 08:01:02;;;;;;;29.77;14.20;;;-0.40;99.90;;;;;;5208003;28;20052;-75
2022/01/14 08:03:33;;;;;;;25.50;14.38;;;-0.20;99.90;;;;;;5208270;28;20072;-76
2022/01/14 08:06:04;;;;;;;25.42;14.00;;;0.00;99.90;;;;;;5190602;28;20029;-74
2022/01/14 08:08:35;;;;;;;29.77;14.32;;;-0.10;99.90;;;;;;5207888;28;20021;-76
2022/01/14 08:11:06;;;;;;;32.75;16.88;;;0.40;99.90;;;;;;5207766;28;20484;-75
2022/01/14 08:13:37;;;;;;;27.95;15.57;;;0.50;99.90;;;;;;5207228;28;20044;-75
2022/01/14 08:16:08;;;;;;;26.52;14.27;;;0.30;99.90;;;;;;5188664;28;20092;-75
2022/01/14 08:18:39;;;;;;;29.77;14.52;;;0.40;99.90;;;;;;5207810;28;20052;-75
2022/01/14 08:21:09;;;;;;;26.25;13.40;;;0.60;99.90;;;;;;5207688;28;20017;-74
2022/01/14 08:23:40;;;;;;;26.48;14.65;;;0.50;99.90;;;;;;5207615;28;20021;-75
2022/01/14 08:26:11;;;;;;;39.28;19.50;;;0.90;99.90;;;;;;5207375;28;20357;-75
2022/01/14 08:28:42;;;;;;;20.77;12.38;;;0.90;99.90;;;;;;5207466;28;20048;-75
2022/01/14 08:31:14;;;;;;;24.98;14.00;;;0.40;99.90;;;;;;5207393;28;20119;-74
2022/01/14 08:33:46;;;;;;;24.13;12.70;;;1.00;99.90;;;;;;5207152;28;20026;-75
2022/01/14 08:36:17;;;;;;;24.95;13.80;;;1.30;99.90;;;;;;5206566;28;20027;-75
2022/01/14 08:38:47;;;;;;;37.95;20.90;;;1.70;99.90;;;;;;5206155;28;20037;-75
2022/01/14 08:41:19;;;;;;;24.33;12.88;;;1.50;99.90;;;;;;5206220;28;20071;-75
2022/01/14 08:43:50;;;;;;;83.32;39.95;;;1.60;99.90;;;;;;5206462;28;20030;-74
2022/01/14 08:46:21;;;;;;;27.30;12.52;;;1.90;99.90;;;;;;5205623;28;20104;-75
2022/01/14 08:48:54;;;;;;;90.53;39.03;;;1.60;99.90;;;;;;5198773;28;20026;-75
2022/01/14 08:51:28;;;;;;;20.65;12.05;;;1.80;99.90;;;;;;5203025;28;20449;-74
2022/01/14 08:54:02;;;;;;;43.35;22.38;;;1.60;99.90;;;;;;5204595;28;20030;-76
2022/01/14 08:56:33;;;;;;;24.70;13.52;;;2.00;99.90;;;;;;5205463;28;20095;-76
2022/01/14 08:59:05;;;;;;;26.52;15.75;;;2.60;99.90;;;;;;5206054;28;20025;-75
2022/01/14 09:01:40;;;;;;;23.23;12.73;;;1.80;99.90;;;;;;5205942;28;20026;-76
2022/01/14 09:04:11;;;;;;;22.75;12.25;;;2.40;99.90;;;;;;5205989;28;20029;-76
2022/01/14 09:06:42;;;;;;;23.92;14.07;;;3.40;99.90;;;;;;5205870;28;20060;-76
2022/01/14 09:09:13;;;;;;;22.75;12.07;;;3.10;99.90;;;;;;5206065;28;20045;-77
2022/01/14 09:11:44;;;;;;;25.52;12.65;;;2.70;99.90;;;;;;5188936;28;20834;-76
2022/01/14 09:14:18;;;;;;;20.38;11.00;;;3.50;99.90;;;;;;5205824;28;20726;-76
2022/01/14 09:16:49;;;;;;;20.15;11.65;;;4.00;99.90;;;;;;5198576;28;20048;-77
2022/01/14 09:19:21;;;;;;;20.13;11.63;;;4.80;99.90;;;;;;5205744;28;20092;-76
2022/01/14 09:21:51;;;;;;;20.00;11.27;;;3.50;97.00;;;;;;5206147;28;20025;-76
2022/01/14 09:24:22;;;;;;;23.52;12.02;;;4.30;94.50;;;;;;5205193;28;20091;-76
2022/01/14 09:26:53;;;;;;;24.23;12.60;;;3.70;92.20;;;;;;5205586;28;20076;-75
2022/01/14 09:29:24;;;;;;;23.40;11.63;;;3.40;92.40;;;;;;5193184;28;20084;-75
2022/01/14 09:31:56;;;;;;;21.85;12.10;;;4.60;92.90;;;;;;5205793;28;20092;-75
2022/01/14 09:34:27;;;;;;;19.02;11.15;;;4.20;85.90;;;;;;5204844;28;20029;-76
2022/01/14 09:36:58;;;;;;;21.92;11.93;;;5.00;83.30;;;;;;5205286;28;20033;-76
2022/01/14 09:39:31;;;;;;;19.60;10.23;;;4.30;81.20;;;;;;5204420;28;20060;-75
2022/01/14 09:42:04;;;;;;;22.20;11.15;;;4.50;80.80;;;;;;5204494;28;20063;-74
2022/01/14 09:44:35;;;;;;;15.32;7.80;;;4.00;78.80;;;;;;5203351;28;20026;-76
2022/01/14 09:47:06;;;;;;;15.50;9.02;;;3.10;80.00;;;;;;5201854;28;20058;-74
2022/01/14 09:49:39;;;;;;;18.60;10.15;;;3.90;78.30;;;;;;5200724;28;20517;-73
2022/01/14 09:52:15;;;;;;;29.17;16.38;;;4.00;81.20;;;;;;5201692;28;20037;-75
2022/01/14 09:54:47;;;;;;;21.48;12.40;;;4.70;81.60;;;;;;5202125;28;20025;-74
2022/01/14 09:57:19;;;;;;;20.67;11.73;;;4.10;79.40;;;;;;5197418;28;20096;-75
2022/01/14 09:59:50;;;;;;;20.58;12.27;;;4.70;79.60;;;;;;5204072;28;20108;-76
2022/01/14 10:02:32;;;;;;;23.13;13.13;;;4.70;76.90;;;;;;5168916;28;20148;-75
2022/01/14 10:05:06;;;;;;;19.67;11.63;;;5.10;76.60;;;;;;5204943;28;20037;-78
2022/01/14 10:07:37;;;;;;;21.77;11.38;;;5.10;76.80;;;;;;5205690;28;20025;-76
2022/01/14 10:10:22;;;;;;;22.88;11.70;;;5.00;77.00;;;;;;5208763;28;20029;-76
2022/01/14 10:12:53;;;;;;;27.88;15.13;;;5.50;77.60;;;;;;5202429;28;20030;-76
2022/01/14 10:15:24;;;;;;;23.67;13.18;;;4.90;77.20;;;;;;5205260;28;20044;-75
2022/01/14 10:17:59;;;;;;;27.35;14.00;;;4.50;77.70;;;;;;5204937;28;20045;-76
2022/01/14 10:20:37;;;;;;;27.98;15.52;;;5.20;79.70;;;;;;5205097;28;20116;-76
2022/01/14 10:23:07;;;;;;;33.90;16.80;;;4.60;77.70;;;;;;5205243;28;20030;-76
2022/01/14 10:25:40;;;;;;;36.80;18.95;;;4.30;78.80;;;;;;5204970;28;20013;-76
2022/01/14 10:28:18;;;;;;;35.13;17.05;;;4.30;79.00;;;;;;5204907;28;20555;-76
2022/01/14 10:30:49;;;;;;;34.63;17.90;;;5.50;79.30;;;;;;5204796;28;20036;-76
2022/01/14 10:33:26;;;;;;;36.88;19.15;;;5.10;78.00;;;;;;5205250;28;20071;-74
2022/01/14 10:35:58;;;;;;;38.53;18.23;;;4.70;80.30;;;;;;5204812;28;20026;-75
2022/01/14 10:38:38;;;;;;;34.05;17.75;;;5.30;79.60;;;;;;5205100;28;20030;-75
2022/01/14 10:41:09;;;;;;;35.47;18.23;;;4.60;78.30;;;;;;5208483;28;20040;-74
2022/01/14 10:43:40;;;;;;;41.85;20.27;;;4.80;81.20;;;;;;5208776;28;20021;-74
2022/01/14 10:46:11;;;;;;;38.75;20.55;;;5.20;82.10;;;;;;5207988;28;20053;-75
2022/01/14 10:48:46;;;;;;;41.83;20.92;;;4.70;84.10;;;;;;5208667;28;20025;-75
2022/01/14 10:51:18;;;;;;;41.17;21.48;;;5.50;83.40;;;;;;5208068;28;20033;-75
2022/01/14 10:53:52;;;;;;;42.80;21.80;;;5.10;80.80;;;;;;5208226;28;20132;-75
2022/01/14 10:56:27;;;;;;;44.15;21.77;;;5.40;78.80;;;;;;5208311;28;20068;-75
2022/01/14 10:58:59;;;;;;;35.78;17.48;;;5.50;82.50;;;;;;5207962;28;20084;-75
2022/01/14 11:01:31;;;;;;;37.05;17.63;;;5.90;76.30;;;;;;5208477;28;20040;-75
2022/01/14 11:04:11;;;;;;;28.00;15.02;;;6.40;74.60;;;;;;5208059;28;20037;-76
2022/01/14 11:06:42;;;;;;;24.10;12.77;;;6.00;71.10;;;;;;5208249;28;20029;-75
2022/01/14 11:09:18;;;;;;;21.08;12.02;;;5.70;68.80;;;;;;5207945;28;20083;-76
2022/01/14 11:11:50;;;;;;;22.02;11.30;;;5.00;67.50;;;;;;5204792;28;20473;-77
2022/01/14 11:14:22;;;;;;;22.17;10.35;;;6.00;68.40;;;;;;5208029;28;20026;-76
2022/01/14 11:16:54;;;;;;;22.60;11.38;;;5.70;68.90;;;;;;5206463;28;20042;-75
2022/01/14 11:19:28;;;;;;;25.05;11.45;;;5.80;68.70;;;;;;5206612;28;20385;-76
2022/01/14 11:24:53;;;;;;;23.48;11.50;;;5.30;67.60;;;;;;5174518;28;20030;-75
2022/01/14 11:27:26;;;;;;;20.38;11.20;;;5.50;67.60;;;;;;5207569;28;20477;-75
2022/01/14 11:30:01;;;;;;;24.15;13.52;;;5.60;68.80;;;;;;5207625;28;20021;-76
2022/01/14 11:33:02;;;;;;;30.02;13.77;;;5.60;69.00;;;;;;5207705;28;20021;-76
2022/01/14 11:35:38;;;;;;;27.25;13.95;;;6.10;69.50;;;;;;5191164;28;20029;-75
2022/01/14 11:38:41;;;;;;;24.83;13.50;;;6.00;69.70;;;;;;5203052;28;20038;-75
2022/01/14 11:41:16;;;;;;;25.20;12.98;;;5.60;67.90;;;;;;5205011;28;20365;-75
2022/01/14 11:43:54;;;;;;;26.70;14.27;;;5.90;68.80;;;;;;5204750;28;20057;-75
2022/01/14 11:46:31;;;;;;;24.85;13.93;;;5.70;68.00;;;;;;5189156;28;20052;-75
2022/01/14 11:49:21;;;;;;;24.00;13.23;;;5.70;68.20;;;;;;5201113;28;20037;-76
2022/01/14 11:51:58;;;;;;;24.80;13.50;;;6.60;67.50;;;;;;5205734;28;20040;-77
2022/01/14 11:54:44;;;;;;;25.13;14.45;;;6.40;68.50;;;;;;5206351;28;20100;-77
2022/01/14 11:57:47;;;;;;;26.25;13.63;;;6.30;66.30;;;;;;5205622;28;20076;-76
2022/01/14 12:00:38;;;;;;;27.10;14.23;;;6.60;67.10;;;;;;5162502;28;20045;-76
2022/01/14 12:03:14;;;;;;;28.48;14.35;;;6.60;66.20;;;;;;5204796;28;20017;-75
2022/01/14 12:05:57;;;;;;;32.45;15.40;;;6.90;67.60;;;;;;5206087;28;20060;-76
2022/01/14 12:08:31;;;;;;;34.78;16.13;;;6.40;69.00;;;;;;5204039;28;20017;-77
2022/01/14 12:11:07;;;;;;;33.53;16.52;;;7.20;68.00;;;;;;5206338;28;20025;-76
2022/01/14 12:13:49;;;;;;;26.20;15.85;;;6.40;67.40;;;;;;5206381;28;20105;-76
2022/01/14 12:16:35;;;;;;;38.38;18.13;;;6.30;67.40;;;;;;5206822;28;20048;-77
2022/01/14 12:19:07;;;;;;;39.45;17.48;;;6.70;69.30;;;;;;5206851;28;20484;-76
2022/01/14 12:21:39;;;;;;;31.65;15.95;;;6.20;68.50;;;;;;5206587;28;20034;-77
2022/01/14 12:24:16;;;;;;;34.78;16.67;;;6.50;69.20;;;;;;5206861;28;20105;-77
2022/01/14 12:27:07;;;;;;;35.90;18.25;;;7.00;68.80;;;;;;5205789;28;20087;-77
2022/01/14 12:29:46;;;;;;;36.47;17.52;;;6.70;70.00;;;;;;5205402;28;20052;-76
2022/01/14 12:32:29;;;;;;;35.30;17.38;;;6.90;69.10;;;;;;5206633;28;20036;-76
2022/01/14 12:35:07;;;;;;;31.48;15.73;;;7.00;69.30;;;;;;5199393;28;20095;-78
2022/01/14 12:37:41;;;;;;;32.78;15.80;;;6.80;67.70;;;;;;5206441;28;20111;-75
2022/01/14 12:40:24;;;;;;;26.73;15.30;;;7.10;68.20;;;;;;5206794;28;20013;-76
2022/01/14 12:43:04;;;;;;;24.92;14.02;;;6.80;66.80;;;;;;5206621;28;20040;-77
2022/01/14 12:45:38;;;;;;;24.38;12.40;;;6.90;66.80;;;;;;5204951;28;20505;-76
2022/01/14 12:48:31;;;;;;;19.85;12.45;;;7.10;66.20;;;;;;5206191;28;20040;-76
2022/01/14 12:51:15;;;;;;;23.20;12.30;;;6.80;65.60;;;;;;5198745;28;20022;-77
2022/01/14 12:53:54;;;;;;;23.00;11.80;;;7.60;65.10;;;;;;5205999;28;20060;-76
2022/01/14 12:56:29;;;;;;;20.47;11.30;;;7.70;63.50;;;;;;5205623;28;20033;-76
2022/01/14 12:59:05;;;;;;;22.60;12.25;;;7.70;64.10;;;;;;5205990;28;20075;-76
2022/01/14 13:01:42;;;;;;;17.23;9.85;;;7.20;63.60;;;;;;5204582;28;20031;-76
2022/01/14 13:04:15;;;;;;;20.95;11.02;;;7.20;61.70;;;;;;5205976;28;20022;-76
2022/01/14 13:06:53;;;;;;;17.35;10.85;;;6.80;62.20;;;;;;5205533;28;20041;-77
2022/01/14 13:09:31;;;;;;;16.98;10.38;;;6.50;62.70;;;;;;5205429;28;20061;-77
2022/01/14 13:12:10;;;;;;;16.75;9.50;;;6.40;62.60;;;;;;5205977;28;20029;-75
2022/01/14 13:14:47;;;;;;;15.35;8.60;;;6.90;63.40;;;;;;5205451;28;20044;-76
2022/01/14 13:17:25;;;;;;;24.50;11.23;;;6.30;62.80;;;;;;5205524;28;20037;-77
2022/01/14 13:20:01;;;;;;;18.13;9.98;;;6.40;64.20;;;;;;5205998;28;20033;-76
2022/01/14 13:22:32;;;;;;;18.65;10.20;;;7.00;63.70;;;;;;5204873;28;20033;-77
2022/01/14 13:25:05;;;;;;;17.52;10.18;;;7.30;63.40;;;;;;5205940;28;20057;-77
2022/01/14 13:27:42;;;;;;;18.33;11.48;;;6.60;63.10;;;;;;5205368;28;20088;-77
2022/01/14 13:30:31;;;;;;;20.13;10.93;;;6.80;65.30;;;;;;5205354;28;20026;-77